createdAt,value
2022-12-11T00:03:25.181Z,21.47
2022-12-11T00:08:27.345Z,21.43
2022-12-11T00:13:29.060Z,24.00
2022-12-11T00:18:30.651Z,24.50
2022-12-11T00:23:33.952Z,24.80
2022-12-11T00:28:36.125Z,25.20
2022-12-11T00:33:41.776Z,24.97
2022-12-11T00:38:43.811Z,25.93
2022-12-11T00:43:45.375Z,24.97
2022-12-11T00:48:48.506Z,22.27
2022-12-11T00:53:49.959Z,20.77
2022-12-11T00:58:51.358Z,20.87
2022-12-11T01:03:53.770Z,21.27
2022-12-11T01:09:13.863Z,19.80
2022-12-11T01:14:15.377Z,20.20
2022-12-11T01:19:16.791Z,18.20
2022-12-11T01:24:18.243Z,19.20
2022-12-11T01:29:19.716Z,17.23
2022-12-11T01:34:21.225Z,19.13
2022-12-11T01:39:22.962Z,18.17
2022-12-11T01:44:24.369Z,18.37
2022-12-11T01:49:28.782Z,18.70
2022-12-11T01:54:31.425Z,16.35
2022-12-11T01:59:37.454Z,18.43
2022-12-11T02:04:41.004Z,16.53
2022-12-11T02:09:45.303Z,18.30
2022-12-11T02:14:59.714Z,17.90
2022-12-11T02:20:11.482Z,18.60
2022-12-11T02:25:38.594Z,18.90
2022-12-11T02:30:42.373Z,18.57
2022-12-11T02:35:46.056Z,17.67
2022-12-11T02:40:51.710Z,17.65
2022-12-11T02:45:54.169Z,17.87
2022-12-11T02:50:57.974Z,17.33
2022-12-11T02:56:09.388Z,18.38
2022-12-11T03:01:10.904Z,19.17
2022-12-11T03:06:18.274Z,20.13
2022-12-11T03:11:19.694Z,20.10
2022-12-11T03:16:36.945Z,18.67
2022-12-11T03:21:44.534Z,19.33
2022-12-11T03:26:56.872Z,17.80
2022-12-11T03:32:08.342Z,17.83
2022-12-11T03:37:13.467Z,17.47
2022-12-11T03:42:16.914Z,18.93
2022-12-11T03:47:22.514Z,19.87
2022-12-11T03:52:27.827Z,18.53
2022-12-11T03:57:33.540Z,18.67
2022-12-11T04:02:35.023Z,17.63
2022-12-11T04:07:36.703Z,18.37
2022-12-11T04:12:38.160Z,19.10
2022-12-11T04:17:58.180Z,19.20
2022-12-11T04:23:18.352Z,19.07
2022-12-11T04:28:19.835Z,19.60
2022-12-11T04:33:21.343Z,19.40
2022-12-11T04:38:22.780Z,18.07
2022-12-11T04:43:24.261Z,18.57
2022-12-11T04:48:25.728Z,18.50
2022-12-11T04:53:28.034Z,18.90
2022-12-11T04:58:29.421Z,17.27
2022-12-11T05:03:30.884Z,17.20
2022-12-11T05:08:35.658Z,17.17
2022-12-11T05:13:37.091Z,19.50
2022-12-11T05:18:39.004Z,18.60
2022-12-11T05:23:41.321Z,19.40
2022-12-11T05:28:43.939Z,17.90
2022-12-11T05:33:46.227Z,17.23
2022-12-11T05:38:48.505Z,18.83
2022-12-11T05:43:50.060Z,19.87
2022-12-11T05:48:55.347Z,20.03
2022-12-11T05:53:57.852Z,20.33
2022-12-11T05:59:01.581Z,20.77
2022-12-11T06:04:04.984Z,20.52
2022-12-11T06:09:06.848Z,19.10
2022-12-11T06:14:10.255Z,19.03
2022-12-11T06:19:15.606Z,17.73
2022-12-11T06:24:17.061Z,18.40
2022-12-11T06:29:18.533Z,17.90
2022-12-11T06:34:19.985Z,17.93
2022-12-11T06:39:21.480Z,18.73
2022-12-11T06:44:23.052Z,18.70
2022-12-11T06:49:24.475Z,19.90
2022-12-11T06:54:27.313Z,18.93
2022-12-11T06:59:28.710Z,17.83
2022-12-11T07:04:30.743Z,17.80
2022-12-11T07:09:32.322Z,18.13
2022-12-11T07:14:33.932Z,20.20
2022-12-11T07:19:35.436Z,21.17
2022-12-11T07:24:36.871Z,21.07
2022-12-11T07:29:38.258Z,21.93
2022-12-11T07:34:40.025Z,21.47
2022-12-11T07:39:41.499Z,18.70
2022-12-11T07:44:42.914Z,18.73
2022-12-11T07:49:44.368Z,19.77
2022-12-11T07:54:45.766Z,20.53
2022-12-11T07:59:47.158Z,23.13
2022-12-11T08:04:49.959Z,21.97
2022-12-11T08:09:51.419Z,20.50
2022-12-11T08:14:52.822Z,21.23
2022-12-11T08:19:54.306Z,21.23
2022-12-11T08:24:55.772Z,21.80
2022-12-11T08:29:57.175Z,18.10
2022-12-11T08:34:58.587Z,20.13
2022-12-11T08:40:00.153Z,20.57
2022-12-11T08:45:01.739Z,21.67
2022-12-11T08:50:04.322Z,18.67
2022-12-11T08:55:06.374Z,19.70
2022-12-11T09:00:09.398Z,20.50
2022-12-11T09:05:11.062Z,20.73
2022-12-11T09:10:12.691Z,21.90
2022-12-11T09:15:14.314Z,20.80
2022-12-11T09:20:15.896Z,20.40
2022-12-11T09:25:17.448Z,22.13
2022-12-11T09:30:18.923Z,19.10
2022-12-11T09:35:20.539Z,15.60
2022-12-11T09:40:22.041Z,14.02
2022-12-11T09:45:23.668Z,14.98
2022-12-11T09:50:33.138Z,12.98
2022-12-11T09:55:56.066Z,13.35
2022-12-11T10:01:25.902Z,12.85
2022-12-11T10:06:35.847Z,13.55
2022-12-11T10:11:54.439Z,12.40
2022-12-11T10:17:10.543Z,12.40
2022-12-11T10:22:24.548Z,12.10
2022-12-11T10:27:33.396Z,11.75
2022-12-11T10:32:56.848Z,11.35
2022-12-11T10:38:11.512Z,9.95
2022-12-11T10:43:13.117Z,10.77
2022-12-11T10:48:14.595Z,10.38
2022-12-11T10:53:21.481Z,10.55
2022-12-11T10:58:26.194Z,11.30
2022-12-11T11:03:28.370Z,10.15
2022-12-11T11:08:39.415Z,11.63
2022-12-11T11:13:40.984Z,12.27
2022-12-11T11:18:48.650Z,11.57
2022-12-11T11:23:54.300Z,10.30
2022-12-11T11:28:57.086Z,11.80
2022-12-11T11:34:03.917Z,12.05
2022-12-11T11:39:26.032Z,15.75
2022-12-11T11:44:33.789Z,11.80
2022-12-11T11:49:41.826Z,10.02
2022-12-11T11:54:56.634Z,9.40
2022-12-11T12:00:09.737Z,11.38
2022-12-11T12:05:15.926Z,11.10
2022-12-11T12:10:40.268Z,10.13
2022-12-11T12:15:58.679Z,9.02
2022-12-11T12:21:42.251Z,9.18
2022-12-11T12:32:42.391Z,9.77
2022-12-11T12:38:02.742Z,9.75
2022-12-11T12:43:37.011Z,11.23
2022-12-11T12:48:38.971Z,10.20
2022-12-11T12:53:45.784Z,9.43
2022-12-11T12:58:47.282Z,8.85
2022-12-11T13:03:53.699Z,8.32
2022-12-11T13:08:55.761Z,9.63
2022-12-11T13:14:06.433Z,9.88
2022-12-11T13:19:42.326Z,10.30
2022-12-11T13:24:53.393Z,10.15
2022-12-11T13:30:05.730Z,10.65
2022-12-11T13:35:14.311Z,11.60
2022-12-11T13:40:23.034Z,13.40
2022-12-11T13:45:44.076Z,13.50
2022-12-11T13:50:46.473Z,11.88
2022-12-11T13:56:00.245Z,14.20
2022-12-11T14:01:06.138Z,12.20
2022-12-11T14:06:18.291Z,12.35
2022-12-11T14:11:47.659Z,12.20
2022-12-11T14:16:52.323Z,14.82
2022-12-11T14:22:02.843Z,14.83
2022-12-11T14:27:04.848Z,13.80
2022-12-11T14:32:07.656Z,14.27
2022-12-11T14:37:10.598Z,14.73
2022-12-11T14:42:20.067Z,15.50
2022-12-11T14:47:32.306Z,14.97
2022-12-11T14:52:39.930Z,14.70
2022-12-11T14:57:45.456Z,15.73
2022-12-11T15:03:01.675Z,17.47
2022-12-11T15:08:12.962Z,17.57
2022-12-11T15:13:16.685Z,19.07
2022-12-11T15:18:40.749Z,18.40
2022-12-11T15:23:53.074Z,17.95
2022-12-11T15:29:00.633Z,19.13
2022-12-11T15:34:02.560Z,19.43
2022-12-11T15:39:08.590Z,20.53
2022-12-11T15:44:19.957Z,18.93
2022-12-11T15:49:24.159Z,21.90
2022-12-11T15:54:25.632Z,19.80
2022-12-11T15:59:27.472Z,22.53
2022-12-11T16:04:28.887Z,23.07
2022-12-11T16:09:30.301Z,25.83
2022-12-11T16:14:31.762Z,28.10
2022-12-11T16:19:34.030Z,29.33
2022-12-11T16:24:36.481Z,27.80
2022-12-11T16:29:41.252Z,25.67
2022-12-11T16:39:45.932Z,27.30
2022-12-11T16:44:48.120Z,25.10
2022-12-11T16:49:50.163Z,31.23
2022-12-11T16:54:51.644Z,39.63
2022-12-11T16:59:53.066Z,39.07
2022-12-11T17:04:54.520Z,38.93
2022-12-11T17:09:55.931Z,39.10
2022-12-11T17:14:57.498Z,36.27
2022-12-11T17:19:59.007Z,37.67
2022-12-11T17:25:00.403Z,37.27
2022-12-11T17:30:01.875Z,39.93
2022-12-11T17:35:03.560Z,38.47
2022-12-11T17:40:05.708Z,38.50
2022-12-11T17:45:27.210Z,44.10
2022-12-11T17:50:28.688Z,41.63
2022-12-11T17:55:31.200Z,39.67
2022-12-11T18:00:33.499Z,36.23
2022-12-11T18:05:40.423Z,30.83
2022-12-11T18:10:42.686Z,36.50
2022-12-11T18:15:44.510Z,35.67
2022-12-11T18:20:47.987Z,34.20
2022-12-11T18:25:49.488Z,35.80
2022-12-11T18:30:52.021Z,36.80
2022-12-11T18:35:53.672Z,34.53
2022-12-11T18:40:55.200Z,34.57
2022-12-11T18:45:56.687Z,34.40
2022-12-11T18:50:58.659Z,32.87
2022-12-11T18:56:00.898Z,31.97
2022-12-11T19:01:16.002Z,35.47
2022-12-11T19:06:20.685Z,36.20
2022-12-11T19:16:29.627Z,32.40
2022-12-11T19:21:31.665Z,34.60
2022-12-11T19:26:33.475Z,35.57
2022-12-11T19:31:35.168Z,33.77
2022-12-11T19:36:37.194Z,33.00
2022-12-11T19:41:38.661Z,37.20
2022-12-11T19:46:40.234Z,35.33
2022-12-11T19:51:43.270Z,33.77
2022-12-11T19:56:45.407Z,32.53
2022-12-11T20:01:48.205Z,32.80
2022-12-11T20:06:50.054Z,35.13
2022-12-11T20:11:51.535Z,38.00
2022-12-11T20:17:11.057Z,36.13
2022-12-11T20:22:13.711Z,50.90
2022-12-11T20:27:15.168Z,49.40
2022-12-11T20:32:16.608Z,48.60
2022-12-11T20:37:18.071Z,48.67
2022-12-11T20:42:19.512Z,49.03
2022-12-11T20:47:21.342Z,44.33
2022-12-11T20:52:23.046Z,44.77
2022-12-11T20:57:24.476Z,43.63
2022-12-11T21:02:26.308Z,45.63
2022-12-11T21:07:27.786Z,45.73
2022-12-11T21:12:31.717Z,42.40
2022-12-11T21:17:34.811Z,43.33
2022-12-11T21:22:36.307Z,41.83
2022-12-11T21:27:37.820Z,44.90
2022-12-11T21:32:39.275Z,44.47
2022-12-11T21:37:41.784Z,42.93
2022-12-11T21:42:43.256Z,40.80
2022-12-11T21:47:44.722Z,43.20
2022-12-11T21:52:46.216Z,41.83
2022-12-11T21:57:47.895Z,40.93
2022-12-11T22:02:49.568Z,40.97
2022-12-11T22:07:51.093Z,40.67
2022-12-11T22:12:52.623Z,40.53
2022-12-11T22:17:54.139Z,45.07
2022-12-11T22:22:56.805Z,45.93
2022-12-11T22:27:58.271Z,47.70
2022-12-11T22:32:59.692Z,47.53
2022-12-11T22:38:01.481Z,46.37
2022-12-11T22:43:02.903Z,48.60
2022-12-11T22:48:04.885Z,49.97
2022-12-11T22:53:07.607Z,49.73
2022-12-11T22:58:09.019Z,45.43
2022-12-11T23:03:10.501Z,44.07
2022-12-11T23:08:12.054Z,39.83
2022-12-11T23:13:13.647Z,39.70
2022-12-11T23:18:15.467Z,37.77
2022-12-11T23:23:17.070Z,38.00
2022-12-11T23:28:18.587Z,38.30
2022-12-11T23:33:20.128Z,38.60
2022-12-11T23:38:21.567Z,33.87
2022-12-11T23:43:23.208Z,29.00
2022-12-11T23:48:24.705Z,29.83
2022-12-11T23:53:27.123Z,27.37
2022-12-11T23:58:28.599Z,25.03
